sensor_id;sensor_type;location;lat;lon;timestamp;pressure;altitude;pressure_sealevel;temperature;humidity
62420;BME280;48460;51.616;5.426;2023-02-03T05:47:00;102362.03;;;7.93;100.00
62420;BME280;48460;51.616;5.426;2023-02-03T05:54:46;102374.94;;;8.07;100.00
62420;BME280;48460;51.616;5.426;2023-02-03T05:57:18;102371.50;;;8.02;100.00
62420;BME280;48460;51.616;5.426;2023-02-03T05:59:49;102381.03;;;8.06;100.00
62420;BME280;48460;51.616;5.426;2023-02-03T06:02:18;102346.16;;;8.04;100.00
62420;BME280;48460;51.616;5.426;2023-02-03T06:04:43;102365.47;;;7.96;100.00
62420;BME280;48460;51.616;5.426;2023-02-03T06:07:11;102366.28;;;8.00;100.00
62420;BME280;48460;51.616;5.426;2023-02-03T06:09:40;102381.19;;;7.96;100.00
62420;BME280;48460;51.616;5.426;2023-02-03T06:12:08;102369.91;;;7.94;100.00
62420;BME280;48460;51.616;5.426;2023-02-03T06:14:34;102360.28;;;7.93;100.00
62420;BME280;48460;51.616;5.426;2023-02-03T06:17:00;102381.13;;;7.99;100.00
62420;BME280;48460;51.616;5.426;2023-02-03T06:19:25;102365.47;;;7.98;100.00
62420;BME280;48460;51.616;5.426;2023-02-03T06:21:51;102370.72;;;7.96;100.00
62420;BME280;48460;51.616;5.426;2023-02-03T06:24:17;102363.69;;;7.98;100.00
62420;BME280;48460;51.616;5.426;2023-02-03T06:26:42;102356.75;;;7.97;100.00
62420;BME280;48460;51.616;5.426;2023-02-03T06:29:13;102347.94;;;8.00;100.00
62420;BME280;48460;51.616;5.426;2023-02-03T06:31:43;102354.78;;;8.09;100.00
62420;BME280;48460;51.616;5.426;2023-02-03T06:34:11;102344.34;;;8.06;100.00
62420;BME280;48460;51.616;5.426;2023-02-03T06:36:37;102345.31;;;8.00;100.00
62420;BME280;48460;51.616;5.426;2023-02-03T06:39:03;102334.94;;;7.94;100.00
62420;BME280;48460;51.616;5.426;2023-02-03T06:41:28;102357.66;;;7.95;100.00
62420;BME280;48460;51.616;5.426;2023-02-03T06:43:55;102357.59;;;7.96;100.00
62420;BME280;48460;51.616;5.426;2023-02-03T06:46:23;102365.47;;;7.96;100.00
62420;BME280;48460;51.616;5.426;2023-02-03T06:48:54;102362.91;;;7.95;100.00
62420;BME280;48460;51.616;5.426;2023-02-03T06:51:28;102368.94;;;7.97;100.00
62420;BME280;48460;51.616;5.426;2023-02-03T06:53:54;102369.94;;;7.90;100.00
62420;BME280;48460;51.616;5.426;2023-02-03T06:56:22;102360.22;;;7.96;100.00
62420;BME280;48460;51.616;5.426;2023-02-03T06:58:55;102368.03;;;7.99;100.00
62420;BME280;48460;51.616;5.426;2023-02-03T07:01:26;102370.56;;;8.06;100.00
62420;BME280;48460;51.616;5.426;2023-02-03T07:03:59;102375.19;;;7.91;100.00
62420;BME280;48460;51.616;5.426;2023-02-03T07:09:24;102385.63;;;7.93;100.00
62420;BME280;48460;51.616;5.426;2023-02-03T07:12:10;102396.03;;;7.96;100.00
62420;BME280;48460;51.616;5.426;2023-02-03T07:20:18;102409.19;;;7.94;100.00
62420;BME280;48460;51.616;5.426;2023-02-03T07:23:21;102410.84;;;7.98;100.00
62420;BME280;48460;51.616;5.426;2023-02-03T07:25:53;102414.28;;;8.02;100.00
62420;BME280;48460;51.616;5.426;2023-02-03T07:28:36;102384.72;;;7.94;100.00
62420;BME280;48460;51.616;5.426;2023-02-03T07:31:11;102391.66;;;7.96;100.00
62420;BME280;48460;51.616;5.426;2023-02-03T07:33:48;102391.66;;;7.98;100.00
62420;BME280;48460;51.616;5.426;2023-02-03T07:36:21;102394.19;;;8.04;100.00
62420;BME280;48460;51.616;5.426;2023-02-03T07:45:16;102398.56;;;8.02;100.00
62420;BME280;48460;51.616;5.426;2023-02-03T07:53:50;102412.47;;;8.07;100.00
62420;BME280;48460;51.616;5.426;2023-02-03T07:56:35;102403.69;;;8.08;100.00
62420;BME280;48460;51.616;5.426;2023-02-03T07:59:16;102402.84;;;8.09;100.00
62420;BME280;48460;51.616;5.426;2023-02-03T08:04:47;102418.41;;;8.17;100.00
62420;BME280;48460;51.616;5.426;2023-02-03T08:07:28;102438.47;;;8.21;100.00
62420;BME280;48460;51.616;5.426;2023-02-03T08:15:19;102433.22;;;8.19;100.00
62420;BME280;48460;51.616;5.426;2023-02-03T08:17:59;102439.41;;;8.15;100.00
62420;BME280;48460;51.616;5.426;2023-02-03T08:23:27;102448.19;;;8.11;100.00
62420;BME280;48460;51.616;5.426;2023-02-03T08:25:53;102439.53;;;8.08;100.00
62420;BME280;48460;51.616;5.426;2023-02-03T08:28:41;102433.31;;;8.13;100.00
62420;BME280;48460;51.616;5.426;2023-02-03T08:31:10;102427.28;;;8.10;100.00
62420;BME280;48460;51.616;5.426;2023-02-03T08:33:39;102454.38;;;8.07;100.00
62420;BME280;48460;51.616;5.426;2023-02-03T08:36:05;102456.97;;;8.10;100.00
62420;BME280;48460;51.616;5.426;2023-02-03T08:38:37;102469.06;;;8.17;100.00
62420;BME280;48460;51.616;5.426;2023-02-03T08:41:15;102466.59;;;8.10;100.00
62420;BME280;48460;51.616;5.426;2023-02-03T08:43:47;102470.00;;;8.13;100.00
62420;BME280;48460;51.616;5.426;2023-02-03T08:46:15;102470.91;;;8.12;100.00
62420;BME280;48460;51.616;5.426;2023-02-03T08:48:58;102482.25;;;8.13;100.00
62420;BME280;48460;51.616;5.426;2023-02-03T08:51:30;102460.47;;;8.09;100.00
62420;BME280;48460;51.616;5.426;2023-02-03T08:53:58;102459.59;;;8.09;100.00
62420;BME280;48460;51.616;5.426;2023-02-03T08:56:23;102465.63;;;8.15;100.00
62420;BME280;48460;51.616;5.426;2023-02-03T08:58:50;102461.25;;;8.16;100.00
62420;BME280;48460;51.616;5.426;2023-02-03T09:01:32;102457.72;;;8.18;100.00
62420;BME280;48460;51.616;5.426;2023-02-03T09:04:07;102459.44;;;8.19;100.00
62420;BME280;48460;51.616;5.426;2023-02-03T09:06:41;102457.56;;;8.26;100.00
62420;BME280;48460;51.616;5.426;2023-02-03T09:09:07;102458.44;;;8.27;100.00
62420;BME280;48460;51.616;5.426;2023-02-03T09:11:44;102461.00;;;8.30;100.00
62420;BME280;48460;51.616;5.426;2023-02-03T09:14:19;102465.25;;;8.37;100.00
62420;BME280;48460;51.616;5.426;2023-02-03T09:17:09;102464.38;;;8.39;100.00
62420;BME280;48460;51.616;5.426;2023-02-03T09:19:37;102466.06;;;8.43;100.00
62420;BME280;48460;51.616;5.426;2023-02-03T09:22:12;102492.28;;;8.43;100.00
62420;BME280;48460;51.616;5.426;2023-02-03T09:24:38;102480.75;;;8.52;100.00
62420;BME280;48460;51.616;5.426;2023-02-03T09:27:04;102484.34;;;8.48;100.00
62420;BME280;48460;51.616;5.426;2023-02-03T09:29:31;102500.78;;;8.56;100.00
62420;BME280;48460;51.616;5.426;2023-02-03T09:31:57;102503.47;;;8.53;100.00
62420;BME280;48460;51.616;5.426;2023-02-03T09:34:24;102516.50;;;8.58;100.00
62420;BME280;48460;51.616;5.426;2023-02-03T09:36:52;102502.59;;;8.54;100.00
62420;BME280;48460;51.616;5.426;2023-02-03T09:39:18;102509.59;;;8.54;100.00
62420;BME280;48460;51.616;5.426;2023-02-03T09:42:16;102520.94;;;8.54;100.00
62420;BME280;48460;51.616;5.426;2023-02-03T09:45:25;102526.13;;;8.57;100.00
62420;BME280;48460;51.616;5.426;2023-02-03T09:48:08;102497.34;;;8.53;100.00
62420;BME280;48460;51.616;5.426;2023-02-03T09:50:47;102510.47;;;8.54;100.00
62420;BME280;48460;51.616;5.426;2023-02-03T10:21:20;102499.56;;;9.25;100.00
62420;BME280;48460;51.616;5.426;2023-02-03T10:47:40;102517.56;;;9.84;100.00
62420;BME280;48460;51.616;5.426;2023-02-03T10:53:44;102504.13;;;9.98;100.00
62420;BME280;48460;51.616;5.426;2023-02-03T10:59:51;102510.69;;;10.17;100.00
62420;BME280;48460;51.616;5.426;2023-02-03T11:02:42;102514.13;;;10.21;100.00
62420;BME280;48460;51.616;5.426;2023-02-03T15:04:25;102630.09;;;8.61;100.00
62420;BME280;48460;51.616;5.426;2023-02-03T16:17:25;102699.44;;;8.42;100.00
62420;BME280;48460;51.616;5.426;2023-02-03T16:20:31;102703.97;;;8.25;100.00
62420;BME280;48460;51.616;5.426;2023-02-03T16:23:26;102705.69;;;8.26;100.00
62420;BME280;48460;51.616;5.426;2023-02-03T16:26:25;102714.38;;;8.29;100.00
62420;BME280;48460;51.616;5.426;2023-02-03T17:00:49;102738.28;;;8.06;100.00
62420;BME280;48460;51.616;5.426;2023-02-03T17:04:28;102747.00;;;8.07;100.00
62420;BME280;48460;51.616;5.426;2023-02-03T17:07:48;102754.00;;;8.06;100.00
62420;BME280;48460;51.616;5.426;2023-02-03T17:18:37;102774.91;;;8.09;100.00
62420;BME280;48460;51.616;5.426;2023-02-03T17:32:12;102788.06;;;8.06;100.00
62420;BME280;48460;51.616;5.426;2023-02-03T17:35:23;102789.78;;;8.07;100.00
62420;BME280;48460;51.616;5.426;2023-02-03T17:37:48;102788.94;;;8.02;100.00
62420;BME280;48460;51.616;5.426;2023-02-03T17:43:41;102799.41;;;8.07;100.00
62420;BME280;48460;51.616;5.426;2023-02-03T17:46:08;102801.19;;;8.03;100.00
62420;BME280;48460;51.616;5.426;2023-02-03T17:49:21;102806.44;;;8.03;100.00
62420;BME280;48460;51.616;5.426;2023-02-03T17:52:10;102796.81;;;8.02;100.00
62420;BME280;48460;51.616;5.426;2023-02-03T17:54:36;102817.75;;;8.07;100.00
62420;BME280;48460;51.616;5.426;2023-02-03T17:57:04;102817.78;;;8.04;100.00
62420;BME280;48460;51.616;5.426;2023-02-03T17:59:36;102820.38;;;8.07;100.00
62420;BME280;48460;51.616;5.426;2023-02-03T18:02:26;102828.19;;;8.08;100.00
62420;BME280;48460;51.616;5.426;2023-02-03T18:05:13;102828.19;;;8.08;100.00
62420;BME280;48460;51.616;5.426;2023-02-03T18:07:39;102823.88;;;8.04;100.00
62420;BME280;48460;51.616;5.426;2023-02-03T18:10:06;102830.84;;;8.05;100.00
62420;BME280;48460;51.616;5.426;2023-02-03T18:12:34;102820.34;;;8.05;100.00
62420;BME280;48460;51.616;5.426;2023-02-03T18:15:07;102836.09;;;8.07;100.00
62420;BME280;48460;51.616;5.426;2023-02-03T18:17:37;102833.47;;;8.05;100.00
62420;BME280;48460;51.616;5.426;2023-02-03T18:20:15;102843.97;;;8.02;100.00
62420;BME280;48460;51.616;5.426;2023-02-03T18:22:47;102848.28;;;8.09;100.00
62420;BME280;48460;51.616;5.426;2023-02-03T18:25:26;102853.56;;;8.05;100.00
62420;BME280;48460;51.616;5.426;2023-02-03T18:28:08;102856.22;;;8.03;100.00
62420;BME280;48460;51.616;5.426;2023-02-03T18:31:16;102864.88;;;8.10;100.00
62420;BME280;48460;51.616;5.426;2023-02-03T18:33:44;102878.91;;;8.03;100.00
62420;BME280;48460;51.616;5.426;2023-02-03T18:36:33;102886.72;;;8.06;100.00
62420;BME280;48460;51.616;5.426;2023-02-03T18:39:09;102894.59;;;8.06;100.00
62420;BME280;48460;51.616;5.426;2023-02-03T18:45:01;102894.63;;;8.04;100.00
62420;BME280;48460;51.616;5.426;2023-02-03T18:47:41;102899.91;;;7.98;100.00
62420;BME280;48460;51.616;5.426;2023-02-03T18:50:33;102906.84;;;8.02;100.00
62420;BME280;48460;51.616;5.426;2023-02-03T18:53:36;102915.59;;;7.99;100.00
62420;BME280;48460;51.616;5.426;2023-02-03T18:56:27;102913.88;;;7.97;100.00
62420;BME280;48460;51.616;5.426;2023-02-03T18:59:27;102914.75;;;7.99;100.00
62420;BME280;48460;51.616;5.426;2023-02-03T19:02:42;102912.16;;;7.93;100.00
62420;BME280;48460;51.616;5.426;2023-02-03T19:05:50;102907.84;;;7.89;100.00
62420;BME280;48460;51.616;5.426;2023-02-03T19:08:55;102931.41;;;7.90;100.00
62420;BME280;48460;51.616;5.426;2023-02-03T19:14:27;102924.44;;;7.85;100.00
62420;BME280;48460;51.616;5.426;2023-02-03T19:17:04;102921.84;;;7.83;100.00
62420;BME280;48460;51.616;5.426;2023-02-03T19:19:47;102926.22;;;7.83;100.00
62420;BME280;48460;51.616;5.426;2023-02-03T19:22:50;102929.72;;;7.83;100.00
62420;BME280;48460;51.616;5.426;2023-02-03T19:26:00;102933.22;;;7.81;100.00
62420;BME280;48460;51.616;5.426;2023-02-03T19:28:40;102932.38;;;7.77;100.00
62420;BME280;48460;51.616;5.426;2023-02-03T19:34:48;102933.25;;;7.74;100.00
62420;BME280;48460;51.616;5.426;2023-02-03T19:37:34;102933.25;;;7.73;100.00
62420;BME280;48460;51.616;5.426;2023-02-03T19:40:44;102946.34;;;7.74;100.00
62420;BME280;48460;51.616;5.426;2023-02-03T19:43:20;102942.91;;;7.68;100.00
62420;BME280;48460;51.616;5.426;2023-02-03T19:45:54;102949.00;;;7.70;100.00
62420;BME280;48460;51.616;5.426;2023-02-03T19:48:33;102946.38;;;7.71;100.00
62420;BME280;48460;51.616;5.426;2023-02-03T19:51:08;102943.81;;;7.62;100.00
62420;BME280;48460;51.616;5.426;2023-02-03T19:53:56;102951.59;;;7.70;100.00
62420;BME280;48460;51.616;5.426;2023-02-03T19:56:25;102935.97;;;7.62;100.00
62420;BME280;48460;51.616;5.426;2023-02-03T19:58:53;102937.69;;;7.63;100.00
62420;BME280;48460;51.616;5.426;2023-02-03T20:01:41;102935.94;;;7.64;100.00
62420;BME280;48460;51.616;5.426;2023-02-03T20:04:06;102936.81;;;7.64;100.00
62420;BME280;48460;51.616;5.426;2023-02-03T20:07:02;102943.81;;;7.65;100.00
62420;BME280;48460;51.616;5.426;2023-02-03T20:09:33;102940.31;;;7.60;100.00
62420;BME280;48460;51.616;5.426;2023-02-03T20:11:58;102953.44;;;7.62;100.00
62420;BME280;48460;51.616;5.426;2023-02-03T20:14:26;102961.28;;;7.60;100.00
62420;BME280;48460;51.616;5.426;2023-02-03T20:16:59;102968.28;;;7.60;100.00
62420;BME280;48460;51.616;5.426;2023-02-03T20:19:33;102980.44;;;7.64;100.00
62420;BME280;48460;51.616;5.426;2023-02-03T20:22:06;102968.22;;;7.66;100.00
62420;BME280;48460;51.616;5.426;2023-02-03T20:25:03;102976.09;;;7.64;100.00
62420;BME280;48460;51.616;5.426;2023-02-03T20:28:25;102983.94;;;7.61;100.00
62420;BME280;48460;51.616;5.426;2023-02-03T20:31:25;102981.34;;;7.61;100.00
62420;BME280;48460;51.616;5.426;2023-02-03T20:37:22;102990.09;;;7.59;100.00
62420;BME280;48460;51.616;5.426;2023-02-03T20:40:00;102983.16;;;7.53;100.00
62420;BME280;48460;51.616;5.426;2023-02-03T20:42:55;102987.50;;;7.54;100.00
62420;BME280;48460;51.616;5.426;2023-02-03T20:49:28;102997.06;;;7.63;100.00
62420;BME280;48460;51.616;5.426;2023-02-03T20:52:22;103000.56;;;7.60;100.00
62420;BME280;48460;51.616;5.426;2023-02-03T20:55:26;103003.19;;;7.59;100.00
62420;BME280;48460;51.616;5.426;2023-02-03T20:58:45;102996.25;;;7.50;100.00
62420;BME280;48460;51.616;5.426;2023-02-03T21:01:58;103007.56;;;7.49;100.00
62420;BME280;48460;51.616;5.426;2023-02-03T21:12:04;103011.97;;;7.42;100.00
62420;BME280;48460;51.616;5.426;2023-02-03T21:15:27;103004.13;;;7.39;100.00
62420;BME280;48460;51.616;5.426;2023-02-03T21:27:54;103010.31;;;7.21;100.00
62420;BME280;48460;51.616;5.426;2023-02-03T21:34:21;103019.91;;;7.21;100.00
62420;BME280;48460;51.616;5.426;2023-02-03T21:40:46;103023.38;;;7.29;100.00
62420;BME280;48460;51.616;5.426;2023-02-03T21:44:20;103031.22;;;7.24;100.00
62420;BME280;48460;51.616;5.426;2023-02-03T21:47:23;103038.22;;;7.21;100.00
62420;BME280;48460;51.616;5.426;2023-02-03T21:50:17;103035.59;;;7.21;100.00
62420;BME280;48460;51.616;5.426;2023-02-03T21:55:53;103040.03;;;7.05;100.00
62420;BME280;48460;51.616;5.426;2023-02-03T21:58:45;103042.63;;;6.99;100.00
62420;BME280;48460;51.616;5.426;2023-02-03T22:01:42;103030.44;;;6.90;100.00
62420;BME280;48460;51.616;5.426;2023-02-03T22:04:47;103033.03;;;7.02;100.00
62420;BME280;48460;51.616;5.426;2023-02-03T22:07:40;103033.03;;;6.95;100.00
62420;BME280;48460;51.616;5.426;2023-02-03T22:10:19;103025.19;;;6.81;100.00
62420;BME280;48460;51.616;5.426;2023-02-03T22:12:59;103031.31;;;6.74;100.00
62420;BME280;48460;51.616;5.426;2023-02-03T22:15:31;103026.13;;;6.72;100.00
62420;BME280;48460;51.616;5.426;2023-02-03T22:18:20;103034.81;;;6.73;100.00
62420;BME280;48460;51.616;5.426;2023-02-03T22:21:15;103048.75;;;6.76;100.00
62420;BME280;48460;51.616;5.426;2023-02-03T22:24:02;103037.41;;;6.71;100.00
62420;BME280;48460;51.616;5.426;2023-02-03T22:26:50;103052.25;;;6.72;100.00
62420;BME280;48460;51.616;5.426;2023-02-03T22:29:42;103047.00;;;6.69;100.00
62420;BME280;48460;51.616;5.426;2023-02-03T22:32:26;103056.59;;;6.73;100.00
62420;BME280;48460;51.616;5.426;2023-02-03T22:35:24;103061.81;;;6.66;100.00
62420;BME280;48460;51.616;5.426;2023-02-03T22:38:11;103074.03;;;6.68;100.00
62420;BME280;48460;51.616;5.426;2023-02-03T22:40:57;103061.84;;;6.61;100.00
62420;BME280;48460;51.616;5.426;2023-02-03T22:43:53;103079.25;;;6.65;100.00
62420;BME280;48460;51.616;5.426;2023-02-03T22:47:03;103075.75;;;6.66;100.00
62420;BME280;48460;51.616;5.426;2023-02-03T22:50:05;103071.41;;;6.59;100.00
62420;BME280;48460;51.616;5.426;2023-02-03T23:03:36;103103.66;;;6.59;100.00
62420;BME280;48460;51.616;5.426;2023-02-03T23:06:31;103092.31;;;6.53;100.00
62420;BME280;48460;51.616;5.426;2023-02-03T23:09:13;103090.59;;;6.49;100.00
62420;BME280;48460;51.616;5.426;2023-02-03T23:12:03;103108.00;;;6.51;100.00
62420;BME280;48460;51.616;5.426;2023-02-03T23:14:50;103102.78;;;6.47;100.00
62420;BME280;48460;51.616;5.426;2023-02-03T23:17:34;103110.59;;;6.48;100.00
62420;BME280;48460;51.616;5.426;2023-02-03T23:20:21;103108.00;;;6.47;100.00
62420;BME280;48460;51.616;5.426;2023-02-03T23:22:56;103114.97;;;6.42;100.00
62420;BME280;48460;51.616;5.426;2023-02-03T23:25:54;103111.50;;;6.39;100.00
62420;BME280;48460;51.616;5.426;2023-02-03T23:28:30;103135.88;;;6.45;100.00
62420;BME280;48460;51.616;5.426;2023-02-03T23:31:19;103128.03;;;6.43;100.00
62420;BME280;48460;51.616;5.426;2023-02-03T23:39:23;103133.25;;;6.40;100.00
62420;BME280;48460;51.616;5.426;2023-02-03T23:42:09;103142.84;;;6.39;100.00
62420;BME280;48460;51.616;5.426;2023-02-03T23:44:47;103135.84;;;6.35;100.00
62420;BME280;48460;51.616;5.426;2023-02-03T23:47:33;103128.88;;;6.36;100.00
62420;BME280;48460;51.616;5.426;2023-02-03T23:50:20;103130.63;;;6.31;100.00
62420;BME280;48460;51.616;5.426;2023-02-03T23:53:11;103132.38;;;6.32;100.00
62420;BME280;48460;51.616;5.426;2023-02-03T23:55:52;103122.78;;;6.32;100.00
62420;BME280;48460;51.616;5.426;2023-02-03T23:58:57;103125.41;;;6.34;100.00
